Penllyn, Pennsylvania
Current Conditions -  °F | °C
As of 4:35 PM on Thursday 23 Oct 2014 (Local Time) from KLOM Reporting Station
Broken Clouds Broken Clouds  
Wind Chill: 55°   Ceiling: 7000
Heat Index: 55°   Visibility: 10mi
Dew Point: 45°   Wind: 9mph
Humidity: 67%   Direction: 330°NNW
Pressure: 29.76"   Gusts: 21mph
Location:  40.1575°N, 75.2796°W
Report Text: KLOM 232035Z AUTO 33008G18KT 10SM SCT029 SCT040 BKN070 13/07 A2976 RMK AO1
Loading
Personal Weather Stations






























Interactive Weather Map
Tropical Storm Tracking
New forecast layout! Learn more

10-Day Weather Forecast

Advertisements
Track Severe Weather on mobile